sensor_id;sensor_type;location;lat;lon;timestamp;pressure;altitude;pressure_sealevel;temperature;humidity
44198;BME280;30157;55.512;37.764;2023-01-27T00:00:50;100255.19;;;-5.52;91.83
44198;BME280;30157;55.512;37.764;2023-01-27T00:03:16;100356.53;;;-4.98;91.83
44198;BME280;30157;55.512;37.764;2023-01-27T00:05:43;100341.44;;;-5.10;92.47
44198;BME280;30157;55.512;37.764;2023-01-27T00:08:09;100275.56;;;-5.37;91.75
44198;BME280;30157;55.512;37.764;2023-01-27T00:10:35;100232.81;;;-5.71;91.54
44198;BME280;30157;55.512;37.764;2023-01-27T00:13:01;100299.97;;;-5.37;91.50
44198;BME280;30157;55.512;37.764;2023-01-27T00:15:45;100361.31;;;-5.03;92.04
44198;BME280;30157;55.512;37.764;2023-01-27T00:18:11;100356.34;;;-5.01;92.04
44198;BME280;30157;55.512;37.764;2023-01-27T00:20:37;100317.66;;;-5.37;91.69
44198;BME280;30157;55.512;37.764;2023-01-27T00:23:23;100362.06;;;-5.04;91.47
44198;BME280;30157;55.512;37.764;2023-01-27T00:26:11;100335.09;;;-5.17;91.89
44198;BME280;30157;55.512;37.764;2023-01-27T00:28:41;100345.31;;;-5.15;91.53
44198;BME280;30157;55.512;37.764;2023-01-27T00:31:09;100235.44;;;-5.83;92.04
44198;BME280;30157;55.512;37.764;2023-01-27T00:33:54;100256.16;;;-5.75;92.33
44198;BME280;30157;55.512;37.764;2023-01-27T00:36:22;100308.13;;;-5.42;92.35
44198;BME280;30157;55.512;37.764;2023-01-27T00:38:47;100358.16;;;-5.12;92.08
44198;BME280;30157;55.512;37.764;2023-01-27T00:41:13;100331.38;;;-5.22;91.84
44198;BME280;30157;55.512;37.764;2023-01-27T00:43:52;100365.19;;;-5.08;91.73
44198;BME280;30157;55.512;37.764;2023-01-27T00:46:20;100356.50;;;-5.12;92.18
44198;BME280;30157;55.512;37.764;2023-01-27T00:48:46;100297.81;;;-5.45;92.59
44198;BME280;30157;55.512;37.764;2023-01-27T00:51:13;100349.56;;;-5.28;93.04
44198;BME280;30157;55.512;37.764;2023-01-27T00:53:40;100318.56;;;-5.37;93.42
44198;BME280;30157;55.512;37.764;2023-01-27T00:56:06;100331.84;;;-5.28;93.83
44198;BME280;30157;55.512;37.764;2023-01-27T00:58:32;100362.13;;;-5.16;94.01
44198;BME280;30157;55.512;37.764;2023-01-27T01:00:59;100338.53;;;-5.28;94.84
44198;BME280;30157;55.512;37.764;2023-01-27T01:03:27;100335.63;;;-5.34;95.55
44198;BME280;30157;55.512;37.764;2023-01-27T01:05:57;100331.00;;;-5.40;96.08
44198;BME280;30157;55.512;37.764;2023-01-27T01:08:24;100198.34;;;-6.21;96.30
44198;BME280;30157;55.512;37.764;2023-01-27T01:10:49;100334.88;;;-5.45;96.90
44198;BME280;30157;55.512;37.764;2023-01-27T01:13:15;100288.34;;;-5.72;96.88
44198;BME280;30157;55.512;37.764;2023-01-27T01:15:42;100302.97;;;-5.68;97.04
44198;BME280;30157;55.512;37.764;2023-01-27T01:18:09;100207.81;;;-6.30;96.92
44198;BME280;30157;55.512;37.764;2023-01-27T01:20:37;100207.25;;;-6.26;96.97
44198;BME280;30157;55.512;37.764;2023-01-27T01:23:06;100331.75;;;-5.54;97.26
44198;BME280;30157;55.512;37.764;2023-01-27T01:25:33;100331.16;;;-5.50;97.09
44198;BME280;30157;55.512;37.764;2023-01-27T01:28:01;100212.16;;;-6.16;96.91
44198;BME280;30157;55.512;37.764;2023-01-27T01:30:27;100296.47;;;-5.65;96.89
44198;BME280;30157;55.512;37.764;2023-01-27T01:32:54;100316.13;;;-5.61;96.64
44198;BME280;30157;55.512;37.764;2023-01-27T01:35:21;100245.28;;;-5.99;96.75
44198;BME280;30157;55.512;37.764;2023-01-27T01:37:47;100313.84;;;-5.69;96.78
44198;BME280;30157;55.512;37.764;2023-01-27T01:40:12;100326.59;;;-5.43;96.63
44198;BME280;30157;55.512;37.764;2023-01-27T01:43:05;100330.91;;;-5.42;96.39
44198;BME280;30157;55.512;37.764;2023-01-27T01:47:58;100326.41;;;-5.46;95.60
44198;BME280;30157;55.512;37.764;2023-01-27T01:50:25;100322.84;;;-5.36;95.91
44198;BME280;30157;55.512;37.764;2023-01-27T01:52:52;100301.25;;;-5.56;95.69
44198;BME280;30157;55.512;37.764;2023-01-27T01:55:19;100327.03;;;-5.36;94.95
44198;BME280;30157;55.512;37.764;2023-01-27T01:57:46;100230.50;;;-5.93;94.93
44198;BME280;30157;55.512;37.764;2023-01-27T02:00:12;100193.63;;;-6.16;94.42
44198;BME280;30157;55.512;37.764;2023-01-27T02:02:41;100309.47;;;-5.47;94.12
44198;BME280;30157;55.512;37.764;2023-01-27T02:05:09;100313.28;;;-5.40;94.57
44198;BME280;30157;55.512;37.764;2023-01-27T02:07:52;100310.19;;;-5.36;94.35
44198;BME280;30157;55.512;37.764;2023-01-27T02:10:22;100187.31;;;-6.10;94.04
44198;BME280;30157;55.512;37.764;2023-01-27T02:12:48;100313.38;;;-5.38;93.69
44198;BME280;30157;55.512;37.764;2023-01-27T02:15:14;100318.16;;;-5.43;93.35
44198;BME280;30157;55.512;37.764;2023-01-27T02:17:40;100295.22;;;-5.58;92.74
44198;BME280;30157;55.512;37.764;2023-01-27T02:23:29;100301.09;;;-5.46;93.43
44198;BME280;30157;55.512;37.764;2023-01-27T02:28:29;100294.09;;;-5.50;93.09
44198;BME280;30157;55.512;37.764;2023-01-27T02:30:55;100287.06;;;-5.54;93.47
44198;BME280;30157;55.512;37.764;2023-01-27T02:33:21;100297.19;;;-5.54;92.97
44198;BME280;30157;55.512;37.764;2023-01-27T02:38:15;100201.69;;;-6.09;92.94
44198;BME280;30157;55.512;37.764;2023-01-27T02:40:45;100149.97;;;-6.39;93.08
44198;BME280;30157;55.512;37.764;2023-01-27T02:43:13;100299.06;;;-5.51;92.97
44198;BME280;30157;55.512;37.764;2023-01-27T02:45:40;100304.22;;;-5.50;93.13
44198;BME280;30157;55.512;37.764;2023-01-27T02:48:06;100176.59;;;-6.19;92.85
44198;BME280;30157;55.512;37.764;2023-01-27T02:50:31;100167.38;;;-6.30;92.76
44198;BME280;30157;55.512;37.764;2023-01-27T02:52:57;100133.84;;;-6.53;92.47
44198;BME280;30157;55.512;37.764;2023-01-27T02:55:23;100282.06;;;-5.66;92.81
44198;BME280;30157;55.512;37.764;2023-01-27T02:57:50;100295.91;;;-5.61;92.55
44198;BME280;30157;55.512;37.764;2023-01-27T03:00:31;100275.13;;;-5.68;92.43
44198;BME280;30157;55.512;37.764;2023-01-27T03:02:57;100291.84;;;-5.59;92.59
44198;BME280;30157;55.512;37.764;2023-01-27T03:05:23;100248.06;;;-5.83;92.04
44198;BME280;30157;55.512;37.764;2023-01-27T03:07:49;100174.88;;;-6.32;92.55
44198;BME280;30157;55.512;37.764;2023-01-27T03:10:15;100278.13;;;-5.74;92.85
44198;BME280;30157;55.512;37.764;2023-01-27T03:12:43;100284.78;;;-5.63;92.68
44198;BME280;30157;55.512;37.764;2023-01-27T03:15:11;100263.91;;;-5.85;92.33
44198;BME280;30157;55.512;37.764;2023-01-27T03:18:05;100303.91;;;-5.54;92.87
44198;BME280;30157;55.512;37.764;2023-01-27T03:20:39;100305.50;;;-5.68;92.58
44198;BME280;30157;55.512;37.764;2023-01-27T03:23:06;100217.13;;;-6.17;92.55
44198;BME280;30157;55.512;37.764;2023-01-27T03:25:33;100288.44;;;-5.71;93.50
44198;BME280;30157;55.512;37.764;2023-01-27T03:27:59;100301.09;;;-5.71;93.01
44198;BME280;30157;55.512;37.764;2023-01-27T03:30:33;100311.75;;;-5.63;92.66
44198;BME280;30157;55.512;37.764;2023-01-27T03:33:19;100270.94;;;-5.81;93.21
44198;BME280;30157;55.512;37.764;2023-01-27T03:35:50;100289.25;;;-5.72;92.53
44198;BME280;30157;55.512;37.764;2023-01-27T03:38:37;100263.00;;;-5.86;92.47
44198;BME280;30157;55.512;37.764;2023-01-27T03:41:21;100203.38;;;-6.21;92.90
44198;BME280;30157;55.512;37.764;2023-01-27T03:44:06;100251.59;;;-5.93;92.08
44198;BME280;30157;55.512;37.764;2023-01-27T03:46:50;100161.44;;;-6.56;92.05
44198;BME280;30157;55.512;37.764;2023-01-27T03:49:16;100271.69;;;-5.82;92.68
44198;BME280;30157;55.512;37.764;2023-01-27T03:51:42;100172.69;;;-6.39;92.21
44198;BME280;30157;55.512;37.764;2023-01-27T03:54:07;100231.25;;;-6.08;92.10
44198;BME280;30157;55.512;37.764;2023-01-27T03:56:34;100179.72;;;-6.35;92.36
44198;BME280;30157;55.512;37.764;2023-01-27T03:58:59;100204.28;;;-6.20;92.93
44198;BME280;30157;55.512;37.764;2023-01-27T04:01:25;100298.91;;;-5.66;92.09
44198;BME280;30157;55.512;37.764;2023-01-27T04:03:51;100307.78;;;-5.60;92.39
44198;BME280;30157;55.512;37.764;2023-01-27T04:06:38;100306.38;;;-5.68;92.20
44198;BME280;30157;55.512;37.764;2023-01-27T04:09:28;100186.72;;;-6.31;92.46
44198;BME280;30157;55.512;37.764;2023-01-27T04:11:56;100267.00;;;-5.89;92.10
44198;BME280;30157;55.512;37.764;2023-01-27T04:14:34;100201.75;;;-6.20;92.62
44198;BME280;30157;55.512;37.764;2023-01-27T04:17:03;100313.69;;;-5.59;92.70
44198;BME280;30157;55.512;37.764;2023-01-27T04:19:29;100304.91;;;-5.64;92.00
44198;BME280;30157;55.512;37.764;2023-01-27T04:21:56;100175.13;;;-6.40;92.21
44198;BME280;30157;55.512;37.764;2023-01-27T04:24:22;100206.25;;;-6.16;92.34
44198;BME280;30157;55.512;37.764;2023-01-27T04:27:02;100296.66;;;-5.62;92.09
44198;BME280;30157;55.512;37.764;2023-01-27T04:29:31;100309.75;;;-5.55;91.99
44198;BME280;30157;55.512;37.764;2023-01-27T04:31:57;100243.25;;;-5.92;91.68
44198;BME280;30157;55.512;37.764;2023-01-27T04:34:24;100256.72;;;-5.79;92.27
44198;BME280;30157;55.512;37.764;2023-01-27T04:36:50;100262.00;;;-5.76;91.83
44198;BME280;30157;55.512;37.764;2023-01-27T04:39:16;100195.16;;;-6.18;91.77
44198;BME280;30157;55.512;37.764;2023-01-27T04:41:43;100287.06;;;-5.54;92.11
44198;BME280;30157;55.512;37.764;2023-01-27T04:44:10;100181.16;;;-6.13;91.75
44198;BME280;30157;55.512;37.764;2023-01-27T04:46:36;100311.44;;;-5.43;91.73
44198;BME280;30157;55.512;37.764;2023-01-27T04:49:03;100308.78;;;-5.44;91.34
44198;BME280;30157;55.512;37.764;2023-01-27T04:51:29;100290.19;;;-5.58;91.53
44198;BME280;30157;55.512;37.764;2023-01-27T04:53:55;100332.47;;;-5.44;90.88
44198;BME280;30157;55.512;37.764;2023-01-27T04:56:28;100336.38;;;-5.35;90.93
44198;BME280;30157;55.512;37.764;2023-01-27T04:58:57;100219.38;;;-6.09;90.77
44198;BME280;30157;55.512;37.764;2023-01-27T05:01:23;100297.19;;;-5.54;90.71
44198;BME280;30157;55.512;37.764;2023-01-27T05:03:48;100291.59;;;-5.62;90.49
44198;BME280;30157;55.512;37.764;2023-01-27T05:06:14;100323.72;;;-5.35;90.45
44198;BME280;30157;55.512;37.764;2023-01-27T05:08:40;100328.69;;;-5.37;90.17
44198;BME280;30157;55.512;37.764;2023-01-27T05:11:06;100330.66;;;-5.33;90.18
44198;BME280;30157;55.512;37.764;2023-01-27T05:13:32;100245.13;;;-5.89;90.43
44198;BME280;30157;55.512;37.764;2023-01-27T05:16:15;100333.09;;;-5.34;90.14
44198;BME280;30157;55.512;37.764;2023-01-27T05:18:42;100330.94;;;-5.28;89.89
44198;BME280;30157;55.512;37.764;2023-01-27T05:21:13;100337.25;;;-5.35;89.82
44198;BME280;30157;55.512;37.764;2023-01-27T05:23:42;100338.81;;;-5.37;90.25
44198;BME280;30157;55.512;37.764;2023-01-27T05:26:15;100362.75;;;-5.32;90.38
44198;BME280;30157;55.512;37.764;2023-01-27T05:28:43;100300.44;;;-5.68;89.74
44198;BME280;30157;55.512;37.764;2023-01-27T05:31:12;100347.84;;;-5.41;90.07
44198;BME280;30157;55.512;37.764;2023-01-27T05:33:38;100305.59;;;-5.67;90.44
44198;BME280;30157;55.512;37.764;2023-01-27T05:36:05;100330.69;;;-5.45;90.07
44198;BME280;30157;55.512;37.764;2023-01-27T05:38:31;100325.31;;;-5.49;90.13
44198;BME280;30157;55.512;37.764;2023-01-27T05:41:00;100320.63;;;-5.57;89.93
44198;BME280;30157;55.512;37.764;2023-01-27T05:43:31;100327.41;;;-5.44;90.08
44198;BME280;30157;55.512;37.764;2023-01-27T05:46:14;100252.91;;;-5.86;89.99
44198;BME280;30157;55.512;37.764;2023-01-27T05:48:45;100275.00;;;-5.83;89.73
44198;BME280;30157;55.512;37.764;2023-01-27T05:51:12;100379.34;;;-5.24;89.81
44198;BME280;30157;55.512;37.764;2023-01-27T05:53:38;100336.53;;;-5.46;89.92
44198;BME280;30157;55.512;37.764;2023-01-27T05:56:05;100369.53;;;-5.19;89.93
44198;BME280;30157;55.512;37.764;2023-01-27T05:58:33;100309.06;;;-5.53;89.56
44198;BME280;30157;55.512;37.764;2023-01-27T06:01:06;100366.22;;;-5.18;89.49
44198;BME280;30157;55.512;37.764;2023-01-27T06:03:32;100269.78;;;-5.73;89.71
44198;BME280;30157;55.512;37.764;2023-01-27T06:05:57;100360.84;;;-5.23;89.21
44198;BME280;30157;55.512;37.764;2023-01-27T06:08:24;100391.75;;;-5.15;89.31
44198;BME280;30157;55.512;37.764;2023-01-27T06:10:52;100356.88;;;-5.19;89.60
44198;BME280;30157;55.512;37.764;2023-01-27T06:13:20;100374.44;;;-5.09;89.41
44198;BME280;30157;55.512;37.764;2023-01-27T06:15:46;100358.81;;;-5.15;89.16
44198;BME280;30157;55.512;37.764;2023-01-27T06:18:14;100372.97;;;-5.05;88.74
44198;BME280;30157;55.512;37.764;2023-01-27T06:20:41;100375.31;;;-5.08;88.51
44198;BME280;30157;55.512;37.764;2023-01-27T06:23:09;100330.56;;;-5.34;88.89
44198;BME280;30157;55.512;37.764;2023-01-27T06:25:54;100349.00;;;-5.24;88.85
44198;BME280;30157;55.512;37.764;2023-01-27T06:28:21;100260.25;;;-5.77;88.45
44198;BME280;30157;55.512;37.764;2023-01-27T06:30:47;100255.75;;;-5.81;88.34
44198;BME280;30157;55.512;37.764;2023-01-27T06:33:13;100372.97;;;-5.05;88.38
44198;BME280;30157;55.512;37.764;2023-01-27T06:35:39;100335.53;;;-5.23;88.36
44198;BME280;30157;55.512;37.764;2023-01-27T06:38:07;100315.75;;;-5.28;88.08
44198;BME280;30157;55.512;37.764;2023-01-27T06:40:34;100353.09;;;-5.12;88.22
44198;BME280;30157;55.512;37.764;2023-01-27T06:43:00;100363.16;;;-5.00;88.46
44198;BME280;30157;55.512;37.764;2023-01-27T06:45:26;100383.63;;;-4.97;88.13
44198;BME280;30157;55.512;37.764;2023-01-27T06:47:58;100360.13;;;-5.08;88.01
44198;BME280;30157;55.512;37.764;2023-01-27T06:50:26;100378.28;;;-4.88;88.16
44198;BME280;30157;55.512;37.764;2023-01-27T06:52:52;100232.16;;;-5.68;87.96
44198;BME280;30157;55.512;37.764;2023-01-27T06:55:23;100383.06;;;-4.80;87.88
44198;BME280;30157;55.512;37.764;2023-01-27T06:57:48;100353.31;;;-4.96;87.73
44198;BME280;30157;55.512;37.764;2023-01-27T07:00:15;100377.34;;;-4.77;87.84
44198;BME280;30157;55.512;37.764;2023-01-27T07:02:42;100362.63;;;-4.83;87.59
44198;BME280;30157;55.512;37.764;2023-01-27T07:05:08;100366.00;;;-4.82;87.47
44198;BME280;30157;55.512;37.764;2023-01-27T07:07:34;100391.19;;;-4.72;87.08
44198;BME280;30157;55.512;37.764;2023-01-27T07:10:00;100360.44;;;-4.90;87.18
44198;BME280;30157;55.512;37.764;2023-01-27T07:12:25;100371.50;;;-4.76;87.32
44198;BME280;30157;55.512;37.764;2023-01-27T07:14:51;100249.22;;;-5.52;87.17
44198;BME280;30157;55.512;37.764;2023-01-27T07:17:17;100374.69;;;-4.79;87.49
44198;BME280;30157;55.512;37.764;2023-01-27T07:19:42;100378.81;;;-4.67;87.90
44198;BME280;30157;55.512;37.764;2023-01-27T07:22:08;100317.91;;;-5.21;88.08
44198;BME280;30157;55.512;37.764;2023-01-27T07:24:33;100391.34;;;-4.82;88.91
44198;BME280;30157;55.512;37.764;2023-01-27T07:26:59;100397.66;;;-4.89;89.21
44198;BME280;30157;55.512;37.764;2023-01-27T07:29:26;100396.59;;;-4.79;89.77
44198;BME280;30157;55.512;37.764;2023-01-27T07:31:51;100221.53;;;-5.76;89.64
44198;BME280;30157;55.512;37.764;2023-01-27T07:34:17;100273.59;;;-5.41;89.02
44198;BME280;30157;55.512;37.764;2023-01-27T07:36:43;100390.88;;;-4.63;88.77
44198;BME280;30157;55.512;37.764;2023-01-27T07:39:09;100391.47;;;-4.67;88.75
44198;BME280;30157;55.512;37.764;2023-01-27T07:41:34;100369.16;;;-4.73;88.03
44198;BME280;30157;55.512;37.764;2023-01-27T07:44:00;100374.81;;;-4.64;88.03
44198;BME280;30157;55.512;37.764;2023-01-27T07:46:28;100268.84;;;-5.23;87.25
44198;BME280;30157;55.512;37.764;2023-01-27T07:48:54;100387.31;;;-4.53;87.59
44198;BME280;30157;55.512;37.764;2023-01-27T07:51:19;100361.16;;;-4.66;87.33
44198;BME280;30157;55.512;37.764;2023-01-27T07:53:45;100298.94;;;-5.14;87.91
44198;BME280;30157;55.512;37.764;2023-01-27T07:56:11;100273.13;;;-5.35;88.32
44198;BME280;30157;55.512;37.764;2023-01-27T07:58:40;100383.88;;;-4.67;88.68
44198;BME280;30157;55.512;37.764;2023-01-27T08:01:08;100294.84;;;-5.26;89.08
44198;BME280;30157;55.512;37.764;2023-01-27T08:03:35;100416.81;;;-4.54;89.10
44198;BME280;30157;55.512;37.764;2023-01-27T08:06:07;100291.78;;;-5.33;89.55
44198;BME280;30157;55.512;37.764;2023-01-27T08:08:33;100403.69;;;-4.62;90.23
44198;BME280;30157;55.512;37.764;2023-01-27T08:11:04;100410.56;;;-4.59;90.89
44198;BME280;30157;55.512;37.764;2023-01-27T08:13:30;100377.13;;;-4.80;90.83
44198;BME280;30157;55.512;37.764;2023-01-27T08:16:00;100397.72;;;-4.62;90.60
44198;BME280;30157;55.512;37.764;2023-01-27T08:18:27;100389.41;;;-4.73;90.40
44198;BME280;30157;55.512;37.764;2023-01-27T08:20:58;100288.25;;;-5.24;90.90
44198;BME280;30157;55.512;37.764;2023-01-27T08:23:24;100393.31;;;-4.65;91.02
44198;BME280;30157;55.512;37.764;2023-01-27T08:25:51;100416.34;;;-4.48;91.29
44198;BME280;30157;55.512;37.764;2023-01-27T08:28:18;100409.72;;;-4.46;90.97
44198;BME280;30157;55.512;37.764;2023-01-27T08:30:44;100406.47;;;-4.70;91.45
44198;BME280;30157;55.512;37.764;2023-01-27T08:33:10;100428.06;;;-4.50;91.54
44198;BME280;30157;55.512;37.764;2023-01-27T08:35:36;100365.91;;;-4.84;91.85
44198;BME280;30157;55.512;37.764;2023-01-27T08:38:04;100378.88;;;-4.79;92.87
44198;BME280;30157;55.512;37.764;2023-01-27T08:40:30;100394.81;;;-4.68;92.84
44198;BME280;30157;55.512;37.764;2023-01-27T08:42:56;100393.22;;;-4.66;92.88
44198;BME280;30157;55.512;37.764;2023-01-27T08:45:22;100421.41;;;-4.48;93.06
44198;BME280;30157;55.512;37.764;2023-01-27T08:47:48;100388.66;;;-4.59;92.55
44198;BME280;30157;55.512;37.764;2023-01-27T08:50:14;100326.13;;;-5.12;93.22
44198;BME280;30157;55.512;37.764;2023-01-27T08:52:39;100426.38;;;-4.50;93.17
44198;BME280;30157;55.512;37.764;2023-01-27T08:55:05;100380.38;;;-4.69;93.43
44198;BME280;30157;55.512;37.764;2023-01-27T08:57:31;100414.03;;;-4.45;93.56
44198;BME280;30157;55.512;37.764;2023-01-27T08:59:57;100404.94;;;-4.55;93.72
44198;BME280;30157;55.512;37.764;2023-01-27T09:02:23;100417.91;;;-4.50;93.90
44198;BME280;30157;55.512;37.764;2023-01-27T09:04:49;100415.78;;;-4.44;93.21
44198;BME280;30157;55.512;37.764;2023-01-27T09:07:16;100296.13;;;-5.19;93.81
44198;BME280;30157;55.512;37.764;2023-01-27T09:09:45;100353.66;;;-4.78;93.52
44198;BME280;30157;55.512;37.764;2023-01-27T09:12:11;100317.97;;;-4.94;93.51
44198;BME280;30157;55.512;37.764;2023-01-27T09:14:37;100353.84;;;-4.75;93.14
44198;BME280;30157;55.512;37.764;2023-01-27T09:17:02;100419.09;;;-4.32;93.32
44198;BME280;30157;55.512;37.764;2023-01-27T09:19:28;100417.34;;;-4.19;92.87
44198;BME280;30157;55.512;37.764;2023-01-27T09:21:54;100368.91;;;-4.51;92.58
44198;BME280;30157;55.512;37.764;2023-01-27T09:24:19;100406.03;;;-4.25;92.86
44198;BME280;30157;55.512;37.764;2023-01-27T09:26:45;100383.63;;;-4.32;92.88
44198;BME280;30157;55.512;37.764;2023-01-27T09:29:11;100402.41;;;-4.28;93.36
44198;BME280;30157;55.512;37.764;2023-01-27T09:31:37;100402.72;;;-4.37;93.95
44198;BME280;30157;55.512;37.764;2023-01-27T09:34:02;100272.56;;;-5.18;93.91
44198;BME280;30157;55.512;37.764;2023-01-27T09:36:29;100409.94;;;-4.30;94.09
44198;BME280;30157;55.512;37.764;2023-01-27T09:39:03;100416.00;;;-4.28;94.46
44198;BME280;30157;55.512;37.764;2023-01-27T09:47:28;100404.50;;;-4.09;93.85
44198;BME280;30157;55.512;37.764;2023-01-27T09:50:24;100389.38;;;-4.21;93.50
44198;BME280;30157;55.512;37.764;2023-01-27T09:55:56;100420.38;;;-3.98;92.71
44198;BME280;30157;55.512;37.764;2023-01-27T10:06:39;100391.31;;;-4.17;92.27
44198;BME280;30157;55.512;37.764;2023-01-27T10:20:26;100399.09;;;-4.00;92.35
44198;BME280;30157;55.512;37.764;2023-01-27T10:28:12;100410.84;;;-4.02;92.60
44198;BME280;30157;55.512;37.764;2023-01-27T10:30:48;100404.09;;;-4.02;93.09
44198;BME280;30157;55.512;37.764;2023-01-27T10:33:18;100408.56;;;-3.98;93.08
44198;BME280;30157;55.512;37.764;2023-01-27T10:36:16;100410.34;;;-3.97;92.97
44198;BME280;30157;55.512;37.764;2023-01-27T10:38:50;100371.81;;;-4.18;92.70
44198;BME280;30157;55.512;37.764;2023-01-27T10:44:37;100307.88;;;-4.54;92.60
44198;BME280;30157;55.512;37.764;2023-01-27T10:47:16;100420.06;;;-3.90;93.17
44198;BME280;30157;55.512;37.764;2023-01-27T10:49:54;100209.09;;;-5.08;92.88
44198;BME280;30157;55.512;37.764;2023-01-27T10:52:36;100326.38;;;-4.28;92.81
44198;BME280;30157;55.512;37.764;2023-01-27T10:55:16;100417.84;;;-3.85;92.02
44198;BME280;30157;55.512;37.764;2023-01-27T10:58:01;100380.88;;;-4.08;92.05
44198;BME280;30157;55.512;37.764;2023-01-27T11:00:32;100299.31;;;-4.56;91.82
44198;BME280;30157;55.512;37.764;2023-01-27T11:03:08;100401.06;;;-3.96;92.15
44198;BME280;30157;55.512;37.764;2023-01-27T11:05:40;100331.94;;;-4.34;92.23
44198;BME280;30157;55.512;37.764;2023-01-27T11:08:14;100410.31;;;-3.83;91.95
44198;BME280;30157;55.512;37.764;2023-01-27T11:10:54;100307.69;;;-4.44;91.81
44198;BME280;30157;55.512;37.764;2023-01-27T11:13:39;100326.19;;;-4.31;91.77
44198;BME280;30157;55.512;37.764;2023-01-27T11:16:14;100384.38;;;-3.93;91.43
44198;BME280;30157;55.512;37.764;2023-01-27T11:18:40;100392.66;;;-3.82;91.43
44198;BME280;30157;55.512;37.764;2023-01-27T11:21:20;100401.44;;;-3.77;91.10
44198;BME280;30157;55.512;37.764;2023-01-27T11:23:48;100388.25;;;-3.84;90.92
44198;BME280;30157;55.512;37.764;2023-01-27T11:26:39;100308.44;;;-4.31;90.45
44198;BME280;30157;55.512;37.764;2023-01-27T11:31:53;100411.84;;;-3.72;90.39
44198;BME280;30157;55.512;37.764;2023-01-27T11:38:02;100418.28;;;-3.64;90.01
44198;BME280;30157;55.512;37.764;2023-01-27T11:40:26;100421.03;;;-3.61;89.96
44198;BME280;30157;55.512;37.764;2023-01-27T11:42:54;100414.88;;;-3.64;89.46
44198;BME280;30157;55.512;37.764;2023-01-27T11:45:23;100382.88;;;-3.89;89.77
44198;BME280;30157;55.512;37.764;2023-01-27T11:47:56;100413.63;;;-3.71;89.39
44198;BME280;30157;55.512;37.764;2023-01-27T11:50:28;100390.81;;;-3.84;89.43
44198;BME280;30157;55.512;37.764;2023-01-27T11:53:05;100299.69;;;-4.36;89.30
44198;BME280;30157;55.512;37.764;2023-01-27T11:55:39;100420.63;;;-3.67;89.33
44198;BME280;30157;55.512;37.764;2023-01-27T11:58:13;100434.41;;;-3.63;89.73
44198;BME280;30157;55.512;37.764;2023-01-27T12:00:52;100422.47;;;-3.64;89.73
44198;BME280;30157;55.512;37.764;2023-01-27T12:06:01;100432.25;;;-3.71;89.60
44198;BME280;30157;55.512;37.764;2023-01-27T12:08:36;100399.28;;;-3.84;89.74
44198;BME280;30157;55.512;37.764;2023-01-27T12:11:20;100382.63;;;-3.94;89.68
44198;BME280;30157;55.512;37.764;2023-01-27T12:16:26;100188.84;;;-5.08;89.91
44198;BME280;30157;55.512;37.764;2023-01-27T12:18:58;100430.88;;;-3.65;89.98
44198;BME280;30157;55.512;37.764;2023-01-27T12:21:45;100437.03;;;-3.62;90.21
44198;BME280;30157;55.512;37.764;2023-01-27T12:24:21;100422.09;;;-3.71;90.00
44198;BME280;30157;55.512;37.764;2023-01-27T12:26:50;100324.53;;;-4.31;89.76
44198;BME280;30157;55.512;37.764;2023-01-27T12:29:23;100316.81;;;-4.32;90.23
44198;BME280;30157;55.512;37.764;2023-01-27T12:31:55;100338.75;;;-4.19;90.10
44198;BME280;30157;55.512;37.764;2023-01-27T12:36:56;100445.31;;;-3.64;90.08
44198;BME280;30157;55.512;37.764;2023-01-27T12:42:03;100453.53;;;-3.68;90.13
44198;BME280;30157;55.512;37.764;2023-01-27T12:44:42;100333.88;;;-4.30;90.45
44198;BME280;30157;55.512;37.764;2023-01-27T12:47:26;100448.53;;;-3.67;91.03
44198;BME280;30157;55.512;37.764;2023-01-27T12:50:19;100427.38;;;-3.81;90.71
44198;BME280;30157;55.512;37.764;2023-01-27T12:53:33;100335.56;;;-4.30;90.42
44198;BME280;30157;55.512;37.764;2023-01-27T13:01:01;100426.00;;;-3.76;90.88
44198;BME280;30157;55.512;37.764;2023-01-27T13:03:27;100341.31;;;-4.33;91.05
44198;BME280;30157;55.512;37.764;2023-01-27T13:05:56;100352.97;;;-4.22;90.68
44198;BME280;30157;55.512;37.764;2023-01-27T13:08:25;100440.63;;;-3.72;90.92
44198;BME280;30157;55.512;37.764;2023-01-27T13:10:55;100353.28;;;-4.17;90.87
44198;BME280;30157;55.512;37.764;2023-01-27T13:13:27;100435.66;;;-3.70;91.13
44198;BME280;30157;55.512;37.764;2023-01-27T13:16:16;100440.34;;;-3.63;91.62
44198;BME280;30157;55.512;37.764;2023-01-27T13:18:55;100421.16;;;-3.86;91.80
44198;BME280;30157;55.512;37.764;2023-01-27T13:21:25;100474.41;;;-3.73;91.51
44198;BME280;30157;55.512;37.764;2023-01-27T13:23:53;100446.09;;;-3.79;91.47
44198;BME280;30157;55.512;37.764;2023-01-27T13:26:29;100459.88;;;-3.75;91.76
44198;BME280;30157;55.512;37.764;2023-01-27T13:32:03;100458.50;;;-3.70;91.50
44198;BME280;30157;55.512;37.764;2023-01-27T13:34:42;100472.06;;;-3.69;91.69
44198;BME280;30157;55.512;37.764;2023-01-27T13:37:27;100442.41;;;-3.84;91.53
44198;BME280;30157;55.512;37.764;2023-01-27T13:42:28;100465.22;;;-3.71;91.45
44198;BME280;30157;55.512;37.764;2023-01-27T13:45:04;100472.66;;;-3.74;90.96
44198;BME280;30157;55.512;37.764;2023-01-27T13:52:58;100469.34;;;-3.73;91.44
44198;BME280;30157;55.512;37.764;2023-01-27T13:55:40;100402.06;;;-4.21;91.35
44198;BME280;30157;55.512;37.764;2023-01-27T13:58:35;100482.47;;;-3.65;90.88
44198;BME280;30157;55.512;37.764;2023-01-27T14:01:30;100471.78;;;-3.74;91.53
44198;BME280;30157;55.512;37.764;2023-01-27T14:07:13;100447.59;;;-3.96;91.27
44198;BME280;30157;55.512;37.764;2023-01-27T14:15:33;100491.59;;;-3.68;91.47
44198;BME280;30157;55.512;37.764;2023-01-27T14:18:26;100499.88;;;-3.71;91.54
44198;BME280;30157;55.512;37.764;2023-01-27T14:21:22;100409.34;;;-4.26;91.64
44198;BME280;30157;55.512;37.764;2023-01-27T14:27:21;100472.66;;;-3.87;91.82
44198;BME280;30157;55.512;37.764;2023-01-27T14:32:45;100402.72;;;-4.24;91.38